createdAt,value
2023-01-12T00:02:26.628Z,5.80
2023-01-12T00:04:55.335Z,8.30
2023-01-12T00:07:25.759Z,5.90
2023-01-12T00:09:53.407Z,5.20
2023-01-12T00:12:24.128Z,7.40
2023-01-12T00:14:54.506Z,3.90
2023-01-12T00:17:26.465Z,3.80
2023-01-12T00:19:55.354Z,3.90
2023-01-12T00:22:24.874Z,5.80
2023-01-12T00:24:52.691Z,7.10
2023-01-12T00:27:23.410Z,4.10
2023-01-12T00:29:51.417Z,10.50
2023-01-12T00:32:21.456Z,7.70
2023-01-12T00:34:49.536Z,4.30
2023-01-12T00:37:19.487Z,5.30
2023-01-12T00:40:01.373Z,4.00
2023-01-12T00:42:48.978Z,4.20
2023-01-12T00:45:22.857Z,8.30
2023-01-12T00:47:53.630Z,8.20
2023-01-12T00:50:22.396Z,5.20
2023-01-12T00:52:51.140Z,5.30
2023-01-12T00:55:19.324Z,4.10
2023-01-12T00:57:48.361Z,7.30
2023-01-12T01:00:17.985Z,6.70
2023-01-12T01:02:46.885Z,5.80
2023-01-12T01:05:20.635Z,6.40
2023-01-12T01:07:48.375Z,4.20
2023-01-12T01:10:17.568Z,4.80
2023-01-12T01:12:45.525Z,3.60
2023-01-12T01:15:13.525Z,5.70
2023-01-12T01:17:41.435Z,4.20
2023-01-12T01:20:10.952Z,3.10
2023-01-12T01:22:39.148Z,4.00
2023-01-12T01:25:07.847Z,1.80
2023-01-12T01:27:36.093Z,4.70
2023-01-12T01:30:06.940Z,2.20
2023-01-12T01:32:34.654Z,3.00
2023-01-12T01:35:05.010Z,5.20
2023-01-12T01:37:35.136Z,3.10
2023-01-12T01:40:06.846Z,2.30
2023-01-12T01:42:35.818Z,4.70
2023-01-12T01:45:09.397Z,4.70
2023-01-12T01:47:44.230Z,4.50
2023-01-12T01:50:35.418Z,1.40
2023-01-12T01:53:08.156Z,3.00
2023-01-12T01:55:51.792Z,2.30
2023-01-12T01:58:29.621Z,5.00
2023-01-12T02:00:58.797Z,2.60
2023-01-12T02:03:30.637Z,1.30
2023-01-12T02:06:00.630Z,2.80
2023-01-12T02:09:02.881Z,5.00
2023-01-12T02:11:49.582Z,3.70
2023-01-12T02:14:37.233Z,4.20
2023-01-12T02:17:24.246Z,6.00
2023-01-12T02:20:42.832Z,3.40
2023-01-12T02:23:22.771Z,4.20
2023-01-12T02:26:17.543Z,3.00
2023-01-12T02:29:17.411Z,2.30
2023-01-12T02:32:36.039Z,1.80
2023-01-12T02:35:33.247Z,3.60
2023-01-12T02:38:25.841Z,9.40
2023-01-12T02:41:00.309Z,7.10
2023-01-12T02:43:36.485Z,4.90
2023-01-12T02:46:32.484Z,6.10
2023-01-12T02:49:09.995Z,3.60
2023-01-12T02:51:50.081Z,4.30
2023-01-12T02:54:21.610Z,7.40
2023-01-12T02:56:57.360Z,2.50
2023-01-12T02:59:31.503Z,5.30
2023-01-12T03:02:11.145Z,5.40
2023-01-12T03:04:40.192Z,1.60
2023-01-12T03:07:30.169Z,3.70
2023-01-12T03:10:51.769Z,3.60
2023-01-12T03:13:23.263Z,5.90
2023-01-12T03:15:56.736Z,1.90
2023-01-12T03:18:38.336Z,1.80
2023-01-12T03:21:33.878Z,2.20
2023-01-12T03:24:15.888Z,5.30
2023-01-12T03:26:50.672Z,3.90
2023-01-12T03:29:36.166Z,3.60
2023-01-12T03:32:06.653Z,7.10
2023-01-12T03:34:36.587Z,5.80
2023-01-12T03:37:25.723Z,1.50
2023-01-12T03:40:22.865Z,1.40
2023-01-12T03:43:03.817Z,2.30
2023-01-12T03:45:48.102Z,4.00
2023-01-12T03:48:23.593Z,4.50
2023-01-12T03:51:00.085Z,2.10
2023-01-12T03:53:32.364Z,7.20
2023-01-12T03:56:08.330Z,3.60
2023-01-12T03:58:37.336Z,4.10
2023-01-12T04:01:06.077Z,4.40
2023-01-12T04:03:34.257Z,3.30
2023-01-12T04:06:01.956Z,2.20
2023-01-12T04:08:30.077Z,3.10
2023-01-12T04:10:59.335Z,3.40
2023-01-12T04:13:27.061Z,5.60
2023-01-12T04:15:54.833Z,2.50
2023-01-12T04:18:25.044Z,6.90
2023-01-12T04:20:52.785Z,6.50
2023-01-12T04:23:20.437Z,5.50
2023-01-12T04:25:49.543Z,2.50
2023-01-12T04:28:17.852Z,5.00
2023-01-12T04:30:47.269Z,5.30
2023-01-12T04:33:15.181Z,6.90
2023-01-12T04:35:46.841Z,3.80
2023-01-12T04:38:16.800Z,3.70
2023-01-12T04:40:44.943Z,4.70
2023-01-12T04:43:12.671Z,2.40
2023-01-12T04:45:43.783Z,8.00
2023-01-12T04:48:15.011Z,4.20
2023-01-12T04:50:44.911Z,3.70
2023-01-12T04:53:14.115Z,9.50
2023-01-12T04:55:44.196Z,5.50
2023-01-12T04:58:12.050Z,7.60
2023-01-12T05:00:40.230Z,2.70
2023-01-12T05:03:15.006Z,7.80
2023-01-12T05:05:45.095Z,7.10
2023-01-12T05:08:33.848Z,4.60
2023-01-12T05:11:04.495Z,3.80
2023-01-12T05:13:33.484Z,6.00
2023-01-12T05:16:28.798Z,5.00
2023-01-12T05:18:57.947Z,6.10
2023-01-12T05:21:25.772Z,7.00
2023-01-12T05:23:53.768Z,5.20
2023-01-12T05:26:21.790Z,9.50
2023-01-12T05:28:52.765Z,3.60
2023-01-12T05:31:21.775Z,11.70
2023-01-12T05:33:49.812Z,7.50
2023-01-12T05:36:18.205Z,9.40
2023-01-12T05:38:46.427Z,6.90
2023-01-12T05:41:14.849Z,10.10
2023-01-12T05:43:55.261Z,5.60
2023-01-12T05:46:33.360Z,10.80
2023-01-12T05:49:01.275Z,12.30
2023-01-12T05:51:30.931Z,14.20
2023-01-12T05:54:03.588Z,10.20
2023-01-12T05:56:33.207Z,8.00
2023-01-12T05:59:04.549Z,10.80
2023-01-12T06:01:32.466Z,7.30
2023-01-12T06:04:01.850Z,11.20
2023-01-12T06:06:31.674Z,9.30
2023-01-12T06:09:01.653Z,13.30
2023-01-12T06:11:48.666Z,9.10
2023-01-12T06:14:16.720Z,8.70
2023-01-12T06:16:46.342Z,5.20
2023-01-12T06:19:14.710Z,4.90
2023-01-12T06:21:44.573Z,5.40
2023-01-12T06:24:12.335Z,7.50
2023-01-12T06:26:40.427Z,7.80
2023-01-12T06:29:09.840Z,7.60
2023-01-12T06:31:38.824Z,8.80
2023-01-12T06:34:08.146Z,11.10
2023-01-12T06:36:36.636Z,5.40
2023-01-12T06:39:04.443Z,3.40
2023-01-12T06:41:54.639Z,4.10
2023-01-12T06:44:22.432Z,10.80
2023-01-12T06:46:50.435Z,9.80
2023-01-12T06:49:18.594Z,7.30
2023-01-12T06:51:51.528Z,6.30
2023-01-12T06:54:19.425Z,9.00
2023-01-12T06:56:47.480Z,8.40
2023-01-12T06:59:15.348Z,3.70
2023-01-12T07:01:44.760Z,5.00
2023-01-12T07:04:12.947Z,4.00
2023-01-12T07:06:41.149Z,4.70
2023-01-12T07:09:09.644Z,7.10
2023-01-12T07:11:38.577Z,5.10
2023-01-12T07:14:09.149Z,12.90
2023-01-12T07:16:38.455Z,15.70
2023-01-12T07:19:06.551Z,18.90
2023-01-12T07:21:34.613Z,14.60
2023-01-12T07:24:02.585Z,13.50
2023-01-12T07:26:30.591Z,6.80
2023-01-12T07:28:59.071Z,8.30
2023-01-12T07:31:28.002Z,5.70
2023-01-12T07:33:57.915Z,7.10
2023-01-12T07:36:26.843Z,10.00
2023-01-12T07:38:56.056Z,9.80
2023-01-12T07:41:46.361Z,6.10
2023-01-12T07:44:15.850Z,9.30
2023-01-12T07:46:45.643Z,9.50
2023-01-12T07:49:14.559Z,3.70
2023-01-12T07:51:42.563Z,8.80
2023-01-12T07:54:10.624Z,9.70
2023-01-12T07:56:38.822Z,14.20
2023-01-12T07:59:07.109Z,16.60
2023-01-12T08:01:36.861Z,10.90
2023-01-12T08:04:06.551Z,16.80
2023-01-12T08:06:36.100Z,16.70
2023-01-12T08:09:04.443Z,12.40
2023-01-12T08:11:32.307Z,14.40
2023-01-12T08:14:02.265Z,11.40
2023-01-12T08:16:43.511Z,14.60
2023-01-12T08:19:21.675Z,10.90
2023-01-12T08:21:58.704Z,13.80
2023-01-12T08:24:35.761Z,13.50
2023-01-12T08:27:07.199Z,14.70
2023-01-12T08:29:44.496Z,14.40
2023-01-12T08:32:18.006Z,12.00
2023-01-12T08:34:52.961Z,9.80
2023-01-12T08:37:23.726Z,11.10
2023-01-12T08:39:54.256Z,13.70
2023-01-12T08:42:26.402Z,13.00
2023-01-12T08:44:55.188Z,10.90
2023-01-12T08:47:30.564Z,6.50
2023-01-12T08:50:01.094Z,3.90
2023-01-12T08:52:34.754Z,9.90
2023-01-12T08:55:04.590Z,19.00
2023-01-12T08:57:32.405Z,14.70
2023-01-12T09:00:04.156Z,20.80
2023-01-12T09:02:32.777Z,12.50
2023-01-12T09:05:00.593Z,30.40
2023-01-12T09:07:33.597Z,27.90
2023-01-12T09:10:01.431Z,36.60
2023-01-12T09:12:29.097Z,15.80
2023-01-12T09:14:57.960Z,13.40
2023-01-12T09:17:26.628Z,15.60
2023-01-12T09:19:57.728Z,26.80
2023-01-12T09:22:26.528Z,31.20
2023-01-12T09:24:55.383Z,29.00
2023-01-12T09:27:23.222Z,28.40
2023-01-12T09:29:52.056Z,23.50
2023-01-12T09:32:25.964Z,21.00
2023-01-12T09:34:59.715Z,13.70
2023-01-12T09:37:28.665Z,14.40
2023-01-12T09:39:56.534Z,13.80
2023-01-12T09:42:43.271Z,13.30
2023-01-12T09:45:41.385Z,17.90
2023-01-12T09:48:14.699Z,7.40
2023-01-12T09:50:56.396Z,13.90
2023-01-12T09:53:32.901Z,14.30
2023-01-12T09:56:15.359Z,12.20
2023-01-12T09:59:37.128Z,11.30
2023-01-12T10:02:12.997Z,10.40
2023-01-12T10:04:46.069Z,10.80
2023-01-12T10:07:18.860Z,9.40
2023-01-12T10:09:46.647Z,13.70
2023-01-12T10:12:32.811Z,4.50
2023-01-12T10:15:03.545Z,4.00
2023-01-12T10:17:56.733Z,6.30
2023-01-12T10:20:43.769Z,9.10
2023-01-12T10:23:20.399Z,6.50
2023-01-12T10:26:20.456Z,11.00
2023-01-12T10:28:53.655Z,7.10
2023-01-12T10:31:26.432Z,10.90
2023-01-12T10:34:11.887Z,9.00
2023-01-12T10:36:55.737Z,9.30
2023-01-12T10:39:26.684Z,6.00
2023-01-12T10:42:39.045Z,12.50
2023-01-12T10:45:20.986Z,9.90
2023-01-12T10:47:54.203Z,9.50
2023-01-12T10:50:35.154Z,12.90
2023-01-12T10:53:15.605Z,14.70
2023-01-12T10:55:45.439Z,14.40
2023-01-12T10:58:34.264Z,14.30
2023-01-12T11:01:07.857Z,12.20
2023-01-12T11:03:43.032Z,7.00
2023-01-12T11:06:24.384Z,7.00
2023-01-12T11:08:52.239Z,6.30
2023-01-12T11:11:32.208Z,5.80
2023-01-12T11:14:04.243Z,7.80
2023-01-12T11:16:48.614Z,7.70
2023-01-12T11:19:30.673Z,4.80
2023-01-12T11:22:18.501Z,7.10
2023-01-12T11:25:11.172Z,10.60
2023-01-12T11:27:51.141Z,13.00
2023-01-12T11:30:34.608Z,7.10
2023-01-12T11:36:06.745Z,7.80
2023-01-12T11:38:51.487Z,10.30
2023-01-12T11:41:40.689Z,7.00
2023-01-12T11:44:54.004Z,5.00
2023-01-12T11:47:31.793Z,3.90
2023-01-12T11:50:10.360Z,4.20
2023-01-12T11:52:39.473Z,7.20
2023-01-12T11:55:15.649Z,7.30
2023-01-12T11:57:56.845Z,12.20
2023-01-12T12:00:44.808Z,11.40
2023-01-12T12:03:47.639Z,11.80
2023-01-12T12:06:35.143Z,11.50
2023-01-12T12:10:02.943Z,9.90
2023-01-12T12:13:11.505Z,6.90
2023-01-12T12:15:46.103Z,7.90
2023-01-12T12:18:39.112Z,7.50
2023-01-12T12:21:44.416Z,7.00
2023-01-12T12:24:56.227Z,9.50
2023-01-12T12:27:42.277Z,7.10
2023-01-12T12:30:38.140Z,13.90
2023-01-12T12:33:51.782Z,20.10
2023-01-12T12:37:11.532Z,25.90
2023-01-12T12:40:16.669Z,13.00
2023-01-12T12:43:20.042Z,6.90
2023-01-12T12:46:15.258Z,8.10
2023-01-12T12:49:01.846Z,6.30
2023-01-12T12:51:34.836Z,51.50
2023-01-12T12:54:11.301Z,20.80
2023-01-12T12:56:41.768Z,11.00
2023-01-12T12:59:57.101Z,24.10
2023-01-12T13:02:55.861Z,39.50
2023-01-12T13:05:49.292Z,11.60
2023-01-12T13:08:27.430Z,9.20
2023-01-12T13:10:58.994Z,8.50
2023-01-12T13:13:34.997Z,6.00
2023-01-12T13:16:20.535Z,9.00
2023-01-12T13:18:51.423Z,7.00
2023-01-12T13:21:26.520Z,8.30
2023-01-12T13:24:18.363Z,11.20
2023-01-12T13:26:55.145Z,15.20
2023-01-12T13:29:23.045Z,21.90
2023-01-12T13:31:56.758Z,21.10
2023-01-12T13:34:37.078Z,28.50
2023-01-12T13:37:26.672Z,30.10
2023-01-12T13:40:14.123Z,27.60
2023-01-12T13:43:04.527Z,24.50
2023-01-12T13:45:34.702Z,22.70
2023-01-12T13:48:06.840Z,22.40
2023-01-12T13:50:46.013Z,24.40
2023-01-12T13:53:26.009Z,17.60
2023-01-12T13:56:04.836Z,15.40
2023-01-12T13:58:43.528Z,18.70
2023-01-12T14:01:28.683Z,12.50
2023-01-12T14:04:20.221Z,16.00
2023-01-12T14:07:23.021Z,16.40
2023-01-12T14:10:34.783Z,19.10
2023-01-12T14:13:41.943Z,17.60
2023-01-12T14:16:34.248Z,23.40
2023-01-12T14:19:25.423Z,17.90
2023-01-12T14:22:05.098Z,15.70
2023-01-12T14:24:33.163Z,15.80
2023-01-12T14:27:23.144Z,19.70
2023-01-12T14:29:51.460Z,15.50
2023-01-12T14:32:22.747Z,15.50
2023-01-12T14:34:55.419Z,17.80
2023-01-12T14:37:34.192Z,22.80
2023-01-12T14:40:02.333Z,19.00
2023-01-12T14:42:50.864Z,17.10
2023-01-12T14:45:37.312Z,18.90
2023-01-12T14:48:30.528Z,19.50
2023-01-12T14:51:37.853Z,19.30
2023-01-12T14:54:08.652Z,19.00
2023-01-12T14:56:50.850Z,17.20
2023-01-12T14:59:31.311Z,17.40
2023-01-12T15:02:34.424Z,19.00
2023-01-12T15:05:04.589Z,19.90
2023-01-12T15:07:55.574Z,18.90
2023-01-12T15:10:39.680Z,11.90
2023-01-12T15:13:34.841Z,12.80
2023-01-12T15:16:23.866Z,14.40
2023-01-12T15:19:12.070Z,15.40
2023-01-12T15:22:05.592Z,28.20
2023-01-12T15:27:23.828Z,119.70
2023-01-12T15:29:52.383Z,60.90
2023-01-12T15:32:46.150Z,56.90
2023-01-12T15:35:21.386Z,48.80
2023-01-12T15:37:52.981Z,38.50
2023-01-12T15:40:24.693Z,27.50
2023-01-12T15:42:53.636Z,27.50
2023-01-12T15:45:39.826Z,16.70
2023-01-12T15:48:12.487Z,24.50
2023-01-12T15:50:45.303Z,21.40
2023-01-12T15:53:23.497Z,21.70
2023-01-12T15:55:51.415Z,19.50
2023-01-12T15:58:19.811Z,20.50
2023-01-12T16:00:48.153Z,20.20
2023-01-12T16:03:48.947Z,22.30
2023-01-12T16:06:07.002Z,27.70
2023-01-12T16:08:35.045Z,29.00
2023-01-12T16:11:12.573Z,25.80
2023-01-12T16:13:41.327Z,24.20
2023-01-12T16:16:16.416Z,23.00
2023-01-12T16:18:45.014Z,28.80
2023-01-12T16:21:17.737Z,41.30
2023-01-12T16:23:46.359Z,40.90
2023-01-12T16:26:14.303Z,36.80
2023-01-12T16:28:45.410Z,27.60
2023-01-12T16:31:16.088Z,24.10
2023-01-12T16:33:45.089Z,19.70
2023-01-12T16:36:17.574Z,20.80
2023-01-12T16:38:45.549Z,18.30
2023-01-12T16:41:21.172Z,13.90
2023-01-12T16:43:52.267Z,15.70
2023-01-12T16:46:22.439Z,22.00
2023-01-12T16:48:52.636Z,21.50
2023-01-12T16:51:21.016Z,16.30
2023-01-12T16:53:51.470Z,17.90
2023-01-12T16:56:19.723Z,25.00
2023-01-12T16:58:48.609Z,20.50
2023-01-12T17:01:22.076Z,10.50
2023-01-12T17:03:51.667Z,17.20
2023-01-12T17:06:21.829Z,18.70
2023-01-12T17:08:49.865Z,20.00
2023-01-12T17:11:20.923Z,21.90
2023-01-12T17:13:58.354Z,24.20
2023-01-12T17:16:30.994Z,20.80
2023-01-12T17:18:59.312Z,35.20
2023-01-12T17:21:28.918Z,26.80
2023-01-12T17:23:57.243Z,17.70
2023-01-12T17:26:25.093Z,19.50
2023-01-12T17:28:56.898Z,16.80
2023-01-12T17:31:25.386Z,20.30
2023-01-12T17:33:53.918Z,29.90
2023-01-12T17:36:22.154Z,33.10
2023-01-12T17:38:50.419Z,35.40
2023-01-12T17:41:37.597Z,50.30
2023-01-12T17:44:07.672Z,35.80
2023-01-12T17:46:36.125Z,28.90
2023-01-12T17:49:08.124Z,30.10
2023-01-12T17:51:37.599Z,33.50
2023-01-12T17:54:09.220Z,32.30
2023-01-12T17:56:38.365Z,37.00
2023-01-12T17:59:06.687Z,30.10
2023-01-12T18:01:36.759Z,28.70
2023-01-12T18:04:05.825Z,21.30
2023-01-12T18:06:33.680Z,21.20
2023-01-12T18:09:11.852Z,20.20
2023-01-12T18:11:41.406Z,21.50
2023-01-12T18:14:10.231Z,22.60
2023-01-12T18:16:38.809Z,20.60
2023-01-12T18:19:11.207Z,23.10
2023-01-12T18:21:40.153Z,24.60
2023-01-12T18:24:09.322Z,23.90
2023-01-12T18:26:38.122Z,27.60
2023-01-12T18:29:07.674Z,32.10
2023-01-12T18:31:42.163Z,35.00
2023-01-12T18:34:11.085Z,25.20
2023-01-12T18:36:41.661Z,26.20
2023-01-12T18:39:19.701Z,24.30
2023-01-12T18:42:09.424Z,25.50
2023-01-12T18:44:40.478Z,22.30
2023-01-12T18:47:27.939Z,19.70
2023-01-12T18:49:58.175Z,24.70
2023-01-12T18:52:44.698Z,31.20
2023-01-12T18:55:12.558Z,28.70
2023-01-12T18:57:40.760Z,41.50
2023-01-12T19:00:17.857Z,29.60
2023-01-12T19:02:52.743Z,22.90
2023-01-12T19:05:24.269Z,28.00
2023-01-12T19:08:05.225Z,36.00
2023-01-12T19:10:34.291Z,32.60
2023-01-12T19:13:22.118Z,24.60
2023-01-12T19:16:09.012Z,24.80
2023-01-12T19:18:38.854Z,27.00
2023-01-12T19:21:33.892Z,37.70
2023-01-12T19:24:20.311Z,31.40
2023-01-12T19:27:07.543Z,37.30
2023-01-12T19:29:35.621Z,44.60
2023-01-12T19:32:03.892Z,31.40
2023-01-12T19:34:32.795Z,29.50
2023-01-12T19:37:00.824Z,28.20
2023-01-12T19:39:52.354Z,27.20
2023-01-12T19:42:46.323Z,24.20
2023-01-12T19:45:15.165Z,33.20
2023-01-12T19:47:45.403Z,29.50
2023-01-12T19:50:14.834Z,31.40
2023-01-12T19:52:48.427Z,37.10
2023-01-12T19:55:16.812Z,63.00
2023-01-12T19:57:44.578Z,71.50
2023-01-12T20:00:16.380Z,73.60
2023-01-12T20:02:45.836Z,81.50
2023-01-12T20:05:22.036Z,70.40
2023-01-12T20:07:54.669Z,59.80
2023-01-12T20:10:25.500Z,39.20
2023-01-12T20:12:54.745Z,22.90
2023-01-12T20:15:22.893Z,32.70
2023-01-12T20:17:54.372Z,22.10
2023-01-12T20:20:22.783Z,28.60
2023-01-12T20:22:50.708Z,19.00
2023-01-12T20:25:20.690Z,17.90
2023-01-12T20:27:51.553Z,20.10
2023-01-12T20:30:36.932Z,20.70
2023-01-12T20:33:07.371Z,25.40
2023-01-12T20:35:38.652Z,25.60
2023-01-12T20:38:13.259Z,18.70
2023-01-12T20:40:44.940Z,17.20
2023-01-12T20:43:15.908Z,19.50
2023-01-12T20:45:46.672Z,32.70
2023-01-12T20:48:15.473Z,21.00
2023-01-12T20:50:47.423Z,24.30
2023-01-12T20:53:19.074Z,25.30
2023-01-12T20:55:52.041Z,14.70
2023-01-12T20:58:20.377Z,21.80
2023-01-12T21:00:52.154Z,20.50
2023-01-12T21:03:22.790Z,26.20
2023-01-12T21:05:51.271Z,22.80
2023-01-12T21:08:21.347Z,19.10
2023-01-12T21:10:53.709Z,20.60
2023-01-12T21:13:22.989Z,25.70
2023-01-12T21:16:07.072Z,20.00
2023-01-12T21:18:35.779Z,18.40
2023-01-12T21:21:06.304Z,29.50
2023-01-12T21:23:42.671Z,26.70
2023-01-12T21:26:24.715Z,18.10
2023-01-12T21:28:52.615Z,10.70
2023-01-12T21:31:23.026Z,21.70
2023-01-12T21:33:51.465Z,19.60
2023-01-12T21:36:19.912Z,14.60
2023-01-12T21:38:52.174Z,22.30
2023-01-12T21:41:21.891Z,16.00
2023-01-12T21:43:53.324Z,17.90
2023-01-12T21:46:24.732Z,25.40
2023-01-12T21:48:52.944Z,23.00
2023-01-12T21:51:20.826Z,15.00
2023-01-12T21:53:48.566Z,15.70
2023-01-12T21:56:17.257Z,18.20
2023-01-12T21:58:46.605Z,16.60
2023-01-12T22:01:17.473Z,15.90
2023-01-12T22:03:45.596Z,11.10
2023-01-12T22:06:13.593Z,6.20
2023-01-12T22:08:43.530Z,10.70
2023-01-12T22:11:18.352Z,11.50
2023-01-12T22:13:48.645Z,14.60
2023-01-12T22:16:17.442Z,23.00
2023-01-12T22:18:49.730Z,16.40
2023-01-12T22:21:20.359Z,20.40
2023-01-12T22:23:50.222Z,20.30
2023-01-12T22:26:19.156Z,20.90
2023-01-12T22:28:49.399Z,18.60
2023-01-12T22:31:21.377Z,14.50
2023-01-12T22:33:58.721Z,17.70
2023-01-12T22:36:26.540Z,19.50
2023-01-12T22:38:55.250Z,19.20
2023-01-12T22:41:24.793Z,19.50
2023-01-12T22:43:53.430Z,17.70
2023-01-12T22:46:25.538Z,17.10
2023-01-12T22:48:59.712Z,24.90
2023-01-12T22:53:58.106Z,10.90
2023-01-12T22:56:26.418Z,9.40
2023-01-12T22:58:57.063Z,13.30
2023-01-12T23:01:26.766Z,15.30
2023-01-12T23:03:59.660Z,14.40
2023-01-12T23:06:28.537Z,14.10
2023-01-12T23:08:56.363Z,11.00
2023-01-12T23:11:28.261Z,15.20
2023-01-12T23:13:57.049Z,19.90
2023-01-12T23:16:26.402Z,16.20
2023-01-12T23:18:55.476Z,23.20
2023-01-12T23:21:28.268Z,24.40
2023-01-12T23:24:00.132Z,18.30
2023-01-12T23:26:32.155Z,18.90
2023-01-12T23:29:03.023Z,19.50
2023-01-12T23:31:33.733Z,22.90
2023-01-12T23:34:02.973Z,23.80
2023-01-12T23:36:31.492Z,19.90
2023-01-12T23:39:07.943Z,17.40
2023-01-12T23:41:38.262Z,15.60
2023-01-12T23:44:10.250Z,17.60
2023-01-12T23:46:42.775Z,19.50
2023-01-12T23:49:11.540Z,16.20
2023-01-12T23:51:40.627Z,17.30
2023-01-12T23:54:17.275Z,20.70
2023-01-12T23:56:45.062Z,16.30
2023-01-12T23:59:14.357Z,17.00
